createdAt,value
2017-11-22T00:00:05.884Z,10.52
2017-11-22T00:01:14.715Z,10.53
2017-11-22T00:02:23.696Z,10.44
2017-11-22T00:03:32.524Z,10.53
2017-11-22T00:04:41.644Z,10.47
2017-11-22T00:05:50.476Z,10.61
2017-11-22T00:06:59.307Z,10.42
2017-11-22T00:08:08.289Z,10.47
2017-11-22T00:09:17.120Z,10.44
2017-11-22T00:10:26.599Z,10.41
2017-11-22T00:11:35.428Z,10.42
2017-11-22T00:12:44.259Z,10.44
2017-11-22T00:13:53.491Z,10.4
2017-11-22T00:15:02.319Z,10.42
2017-11-22T00:16:11.150Z,10.36
2017-11-22T00:17:19.979Z,10.44
2017-11-22T00:18:28.815Z,10.45
2017-11-22T00:19:37.945Z,10.44
2017-11-22T00:20:46.775Z,10.45
2017-11-22T00:21:55.605Z,10.4
2017-11-22T00:23:04.447Z,10.38
2017-11-22T00:24:13.549Z,10.41
2017-11-22T00:25:22.685Z,10.48
2017-11-22T00:26:31.508Z,10.42
2017-11-22T00:27:40.337Z,10.33
2017-11-22T00:28:49.169Z,10.41
2017-11-22T00:29:58.277Z,10.41
2017-11-22T00:31:07.737Z,10.44
2017-11-22T00:32:16.568Z,10.41
2017-11-22T00:33:25.400Z,10.34
2017-11-22T00:34:34.230Z,10.3
2017-11-22T00:35:43.062Z,10.33
2017-11-22T00:36:51.990Z,10.25
2017-11-22T00:38:00.821Z,10.25
2017-11-22T00:39:09.655Z,10.25
2017-11-22T00:40:18.485Z,10.34
2017-11-22T00:41:27.313Z,10.25
2017-11-22T00:42:36.140Z,10.2
2017-11-22T00:43:44.973Z,10.2
2017-11-22T00:44:53.801Z,10.22
2017-11-22T00:46:02.629Z,10.18
2017-11-22T00:47:11.457Z,10.25
2017-11-22T00:48:20.816Z,10.26
2017-11-22T00:49:29.647Z,10.17
2017-11-22T00:50:38.474Z,10.18
2017-11-22T00:51:47.304Z,10.2
2017-11-22T00:52:56.131Z,10.15
2017-11-22T00:54:05.011Z,10.08
2017-11-22T00:55:13.841Z,10.11
2017-11-22T00:56:22.669Z,10.07
2017-11-22T00:57:31.499Z,10.05
2017-11-22T00:58:40.330Z,10.11
2017-11-22T00:59:49.312Z,10.07
2017-11-22T01:00:58.145Z,10.07
2017-11-22T01:02:06.973Z,10.11
2017-11-22T01:03:15.804Z,10.08
2017-11-22T01:04:24.636Z,10.11
2017-11-22T01:05:33.619Z,10.11
2017-11-22T01:06:42.453Z,10.11
2017-11-22T01:07:51.289Z,10.05
2017-11-22T01:09:00.119Z,9.97
2017-11-22T01:10:09.231Z,10.04
2017-11-22T01:11:18.361Z,9.97
2017-11-22T01:12:27.191Z,9.91
2017-11-22T01:13:36.018Z,10.01
2017-11-22T01:14:44.850Z,9.99
2017-11-22T01:15:53.966Z,10.01
2017-11-22T01:17:02.944Z,10.02
2017-11-22T01:18:11.774Z,10.01
2017-11-22T01:19:20.604Z,9.94
2017-11-22T01:20:29.433Z,9.96
2017-11-22T01:21:38.262Z,9.91
2017-11-22T01:22:47.145Z,9.93
2017-11-22T01:23:55.976Z,9.96
2017-11-22T01:25:05.092Z,9.91
2017-11-22T01:26:13.919Z,10.01
2017-11-22T01:27:22.750Z,10.01
2017-11-22T01:28:31.740Z,9.96
2017-11-22T01:29:40.561Z,9.9
2017-11-22T01:30:49.388Z,9.94
2017-11-22T01:31:58.219Z,9.94
2017-11-22T01:33:07.053Z,9.99
2017-11-22T01:34:15.881Z,9.93
2017-11-22T01:35:24.711Z,9.94
2017-11-22T01:36:33.537Z,9.89
2017-11-22T01:37:42.367Z,9.79
2017-11-22T01:38:51.478Z,9.81
2017-11-22T01:40:00.308Z,9.93
2017-11-22T01:41:09.138Z,9.83
2017-11-22T01:42:17.969Z,9.79
2017-11-22T01:43:26.798Z,9.79
2017-11-22T01:44:35.627Z,9.89
2017-11-22T01:45:44.786Z,9.84
2017-11-22T01:46:53.617Z,9.84
2017-11-22T01:48:02.454Z,9.76
2017-11-22T01:49:11.280Z,9.79
2017-11-22T01:50:20.111Z,9.86
2017-11-22T01:51:29.190Z,9.83
2017-11-22T01:52:38.311Z,9.78
2017-11-22T01:53:47.427Z,9.86
2017-11-22T01:54:56.255Z,9.83
2017-11-22T01:56:05.084Z,9.78
2017-11-22T01:57:14.016Z,9.78
2017-11-22T01:58:22.846Z,9.87
2017-11-22T01:59:31.676Z,9.83
2017-11-22T02:00:40.506Z,9.75
2017-11-22T02:01:49.334Z,9.74
2017-11-22T02:02:58.312Z,9.79
2017-11-22T02:04:07.138Z,9.71
2017-11-22T02:05:15.969Z,9.75
2017-11-22T02:06:24.795Z,9.78
2017-11-22T02:07:33.624Z,9.72
2017-11-22T02:08:42.604Z,9.79
2017-11-22T02:09:51.430Z,9.81
2017-11-22T02:11:00.257Z,9.79
2017-11-22T02:12:09.089Z,9.78
2017-11-22T02:13:17.917Z,9.97
2017-11-22T02:14:26.747Z,9.76
2017-11-22T02:15:35.583Z,9.86
2017-11-22T02:16:44.686Z,9.76
2017-11-22T02:17:53.514Z,9.75
2017-11-22T02:19:02.346Z,9.79
2017-11-22T02:20:11.556Z,9.76
2017-11-22T02:21:20.395Z,9.76
2017-11-22T02:22:29.223Z,9.86
2017-11-22T02:23:38.053Z,9.75
2017-11-22T02:24:46.884Z,9.74
2017-11-22T02:25:56.001Z,9.75
2017-11-22T02:27:04.831Z,9.78
2017-11-22T02:28:13.661Z,9.76
2017-11-22T02:29:22.491Z,9.75
2017-11-22T02:30:31.329Z,9.75
2017-11-22T02:31:40.559Z,9.74
2017-11-22T02:32:49.386Z,9.74
2017-11-22T02:33:58.505Z,9.79
2017-11-22T02:35:07.619Z,9.89
2017-11-22T02:36:16.444Z,9.83
2017-11-22T02:37:25.800Z,9.78
2017-11-22T02:38:34.624Z,9.78
2017-11-22T02:39:43.455Z,9.91
2017-11-22T02:40:52.286Z,9.89
2017-11-22T02:42:01.114Z,9.84
2017-11-22T02:43:10.193Z,9.74
2017-11-22T02:44:19.024Z,9.78
2017-11-22T02:45:27.864Z,9.79
2017-11-22T02:46:36.684Z,9.79
2017-11-22T02:47:45.508Z,9.78
2017-11-22T02:48:54.719Z,9.78
2017-11-22T02:50:03.549Z,9.76
2017-11-22T02:51:12.664Z,9.79
2017-11-22T02:52:21.493Z,9.78
2017-11-22T02:53:30.322Z,9.83
2017-11-22T02:54:39.657Z,9.81
2017-11-22T02:55:48.478Z,9.79
2017-11-22T02:56:57.315Z,9.76
2017-11-22T02:58:06.134Z,9.79
2017-11-22T02:59:14.964Z,9.74
2017-11-22T03:00:24.273Z,9.79
2017-11-22T03:01:33.119Z,9.83
2017-11-22T03:02:41.929Z,9.84
2017-11-22T03:03:50.757Z,9.79
2017-11-22T03:04:59.587Z,9.86
2017-11-22T03:06:08.417Z,9.83
2017-11-22T03:07:17.245Z,9.89
2017-11-22T03:08:26.073Z,9.87
2017-11-22T03:09:34.902Z,9.86
2017-11-22T03:10:43.731Z,9.91
2017-11-22T03:11:52.838Z,9.84
2017-11-22T03:13:01.666Z,9.9
2017-11-22T03:14:10.497Z,9.9
2017-11-22T03:15:19.329Z,9.9
2017-11-22T03:16:28.434Z,9.81
2017-11-22T03:17:37.564Z,9.93
2017-11-22T03:18:46.680Z,9.93
2017-11-22T03:19:55.507Z,9.84
2017-11-22T03:21:04.339Z,9.78
2017-11-22T03:22:13.445Z,9.87
2017-11-22T03:23:22.554Z,9.78
2017-11-22T03:24:31.663Z,9.9
2017-11-22T03:25:41.052Z,9.86
2017-11-22T03:26:49.887Z,9.81
2017-11-22T03:27:58.715Z,9.76
2017-11-22T03:29:07.979Z,9.84
2017-11-22T03:30:16.809Z,9.87
2017-11-22T03:31:25.646Z,9.84
2017-11-22T03:32:34.475Z,9.9
2017-11-22T03:33:43.584Z,9.79
2017-11-22T03:34:52.513Z,9.9
2017-11-22T03:36:01.342Z,9.81
2017-11-22T03:37:10.449Z,9.89
2017-11-22T03:38:19.559Z,9.87
2017-11-22T03:39:28.666Z,9.76
2017-11-22T03:40:37.500Z,9.9
2017-11-22T03:41:46.325Z,9.84
2017-11-22T03:42:55.436Z,9.9
2017-11-22T03:44:04.269Z,9.87
2017-11-22T03:45:13.095Z,9.93
2017-11-22T03:46:21.973Z,9.81
2017-11-22T03:47:30.803Z,9.93
2017-11-22T03:48:39.632Z,9.93
2017-11-22T03:49:48.474Z,9.93
2017-11-22T03:50:57.289Z,9.94
2017-11-22T03:52:06.118Z,9.91
2017-11-22T03:53:14.948Z,9.9
2017-11-22T03:54:23.779Z,9.94
2017-11-22T03:55:32.609Z,9.96
2017-11-22T03:56:41.438Z,9.94
2017-11-22T03:57:50.316Z,9.9
2017-11-22T03:58:59.151Z,9.94
2017-11-22T04:00:08.028Z,9.9
2017-11-22T04:01:16.859Z,9.93
2017-11-22T04:02:25.969Z,9.9
2017-11-22T04:03:34.800Z,9.94
2017-11-22T04:04:43.628Z,9.9
2017-11-22T04:05:52.460Z,9.93
2017-11-22T04:07:01.568Z,9.91
2017-11-22T04:08:10.396Z,9.93
2017-11-22T04:09:19.277Z,9.89
2017-11-22T04:10:28.107Z,9.9
2017-11-22T04:11:37.138Z,9.89
2017-11-22T04:12:45.973Z,9.89
2017-11-22T04:13:54.797Z,9.94
2017-11-22T04:15:03.779Z,9.93
2017-11-22T04:16:12.608Z,9.91
2017-11-22T04:17:21.437Z,9.97
2017-11-22T04:18:30.268Z,9.93
2017-11-22T04:19:39.098Z,9.97
2017-11-22T04:20:47.927Z,10.01
2017-11-22T04:21:56.758Z,10.04
2017-11-22T04:23:05.585Z,10.01
2017-11-22T04:24:14.417Z,9.97
2017-11-22T04:25:23.247Z,9.93
2017-11-22T04:26:32.357Z,9.93
2017-11-22T04:27:41.185Z,9.86
2017-11-22T04:28:50.304Z,9.94
2017-11-22T04:29:59.132Z,9.94
2017-11-22T04:31:08.246Z,9.93
2017-11-22T04:32:17.223Z,9.94
2017-11-22T04:33:26.055Z,9.97
2017-11-22T04:34:34.884Z,9.93
2017-11-22T04:35:43.713Z,9.89
2017-11-22T04:36:52.543Z,9.97
2017-11-22T04:38:01.421Z,9.93
2017-11-22T04:39:10.251Z,9.79
2017-11-22T04:40:19.082Z,9.86
2017-11-22T04:41:27.911Z,9.81
2017-11-22T04:42:36.742Z,9.84
2017-11-22T04:43:45.980Z,9.91
2017-11-22T04:44:54.800Z,9.76
2017-11-22T04:46:03.631Z,9.86
2017-11-22T04:47:12.457Z,9.9
2017-11-22T04:48:21.286Z,9.91
2017-11-22T04:49:30.165Z,9.83
2017-11-22T04:50:38.996Z,9.86
2017-11-22T04:51:47.826Z,9.83
2017-11-22T04:52:56.655Z,9.78
2017-11-22T04:54:05.483Z,9.75
2017-11-22T04:55:14.314Z,9.79
2017-11-22T04:56:23.694Z,9.84
2017-11-22T04:57:32.525Z,9.78
2017-11-22T04:58:41.356Z,9.86
2017-11-22T04:59:50.187Z,9.81
2017-11-22T05:00:59.267Z,9.93
2017-11-22T05:02:08.096Z,9.86
2017-11-22T05:03:16.927Z,9.78
2017-11-22T05:04:26.309Z,9.78
2017-11-22T05:05:35.138Z,9.79
2017-11-22T05:06:43.967Z,9.87
2017-11-22T05:07:52.794Z,9.93
2017-11-22T05:09:01.621Z,9.79
2017-11-22T05:10:10.454Z,9.79
2017-11-22T05:11:19.280Z,9.91
2017-11-22T05:12:28.210Z,9.79
2017-11-22T05:13:37.041Z,9.86
2017-11-22T05:14:46.149Z,9.91
2017-11-22T05:15:54.982Z,9.78
2017-11-22T05:17:03.811Z,9.87
2017-11-22T05:18:12.920Z,9.81
2017-11-22T05:19:21.750Z,9.91
2017-11-22T05:20:30.578Z,9.93
2017-11-22T05:21:39.410Z,9.83
2017-11-22T05:22:48.236Z,9.79
2017-11-22T05:23:57.218Z,9.76
2017-11-22T05:25:06.046Z,9.93
2017-11-22T05:26:14.873Z,9.79
2017-11-22T05:27:23.703Z,9.91
2017-11-22T05:28:32.534Z,9.89
2017-11-22T05:29:41.365Z,9.93
2017-11-22T05:30:50.193Z,9.89
2017-11-22T05:31:59.028Z,9.93
2017-11-22T05:33:07.857Z,9.91
2017-11-22T05:34:16.689Z,9.89
2017-11-22T05:35:25.617Z,9.81
2017-11-22T05:36:34.445Z,9.76
2017-11-22T05:37:43.273Z,9.84
2017-11-22T05:38:52.100Z,9.89
2017-11-22T05:40:01.032Z,9.78
2017-11-22T05:41:10.251Z,9.91
2017-11-22T05:42:19.103Z,9.84
2017-11-22T05:43:27.914Z,9.91
2017-11-22T05:44:36.737Z,9.91
2017-11-22T05:45:45.844Z,9.9
2017-11-22T05:46:54.849Z,9.9
2017-11-22T05:48:03.654Z,9.89
2017-11-22T05:49:13.039Z,9.9
2017-11-22T05:50:21.871Z,9.94
2017-11-22T05:51:30.976Z,9.93
2017-11-22T05:52:39.857Z,9.94
2017-11-22T05:53:48.686Z,9.93
2017-11-22T05:54:57.513Z,9.93
2017-11-22T05:56:06.350Z,9.89
2017-11-22T05:57:15.174Z,10.02
2017-11-22T05:58:24.055Z,9.94
2017-11-22T05:59:32.885Z,9.96
2017-11-22T06:00:41.716Z,10.04
2017-11-22T06:01:50.546Z,10.01
2017-11-22T06:02:59.379Z,9.94
2017-11-22T06:04:08.211Z,10.09
2017-11-22T06:05:17.043Z,10.02
2017-11-22T06:06:25.872Z,10.05
2017-11-22T06:07:34.703Z,10.01
2017-11-22T06:08:43.533Z,10.05
2017-11-22T06:09:52.513Z,10.02
2017-11-22T06:11:01.344Z,10.02
2017-11-22T06:12:10.173Z,10.07
2017-11-22T06:13:19.007Z,10.01
2017-11-22T06:14:27.837Z,9.97
2017-11-22T06:15:36.764Z,9.97
2017-11-22T06:16:45.591Z,10.07
2017-11-22T06:17:54.421Z,10.08
2017-11-22T06:19:03.250Z,10.01
2017-11-22T06:20:12.081Z,10.07
2017-11-22T06:21:20.917Z,10.04
2017-11-22T06:22:29.743Z,10.02
2017-11-22T06:23:38.574Z,10.05
2017-11-22T06:24:47.403Z,10.01
2017-11-22T06:25:56.244Z,10.01
2017-11-22T06:27:05.637Z,10.04
2017-11-22T06:28:14.465Z,10.04
2017-11-22T06:29:23.306Z,10.09
2017-11-22T06:30:32.137Z,10.05
2017-11-22T06:31:40.965Z,9.96
2017-11-22T06:32:49.796Z,10.02
2017-11-22T06:33:58.628Z,9.99
2017-11-22T06:35:07.460Z,10.01
2017-11-22T06:36:16.293Z,10.04
2017-11-22T06:37:25.215Z,10.18
2017-11-22T06:38:34.271Z,10.15
2017-11-22T06:39:43.358Z,10.09
2017-11-22T06:40:52.246Z,10.17
2017-11-22T06:42:01.096Z,10.05
2017-11-22T06:43:09.947Z,10.07
2017-11-22T06:44:18.777Z,10.08
2017-11-22T06:45:27.608Z,10.08
2017-11-22T06:46:36.443Z,10.08
2017-11-22T06:47:45.271Z,10.07
2017-11-22T06:48:54.112Z,10.08
2017-11-22T06:50:02.939Z,10.23
2017-11-22T06:51:11.767Z,10.15
2017-11-22T06:52:20.600Z,10.18
2017-11-22T06:53:29.432Z,10.12
2017-11-22T06:54:38.264Z,10.27
2017-11-22T06:55:47.096Z,10.18
2017-11-22T06:56:55.927Z,10.17
2017-11-22T06:58:04.858Z,10.22
2017-11-22T06:59:13.689Z,10.17
2017-11-22T07:00:22.804Z,10.15
2017-11-22T07:01:31.638Z,10.25
2017-11-22T07:02:40.479Z,10.15
2017-11-22T07:03:49.331Z,10.25
2017-11-22T07:04:58.176Z,10.27
2017-11-22T07:06:07.020Z,10.25
2017-11-22T07:07:15.853Z,10.29
2017-11-22T07:08:24.682Z,10.22
2017-11-22T07:09:33.613Z,10.36
2017-11-22T07:10:42.618Z,10.3
2017-11-22T07:11:51.425Z,10.3
2017-11-22T07:13:00.256Z,10.26
2017-11-22T07:14:09.090Z,10.22
2017-11-22T07:15:18.223Z,10.29
2017-11-22T07:16:27.064Z,10.25
2017-11-22T07:17:35.887Z,10.22
2017-11-22T07:18:44.722Z,10.25
2017-11-22T07:19:53.546Z,10.26
2017-11-22T07:21:02.654Z,10.36
2017-11-22T07:22:11.486Z,10.34
2017-11-22T07:23:20.329Z,10.3
2017-11-22T07:24:29.150Z,10.25
2017-11-22T07:25:38.079Z,10.34
2017-11-22T07:26:46.910Z,10.29
2017-11-22T07:27:56.018Z,10.23
2017-11-22T07:29:04.850Z,10.27
2017-11-22T07:30:13.687Z,10.29
2017-11-22T07:31:22.512Z,10.27
2017-11-22T07:32:31.627Z,10.38
2017-11-22T07:33:40.753Z,10.25
2017-11-22T07:34:49.571Z,10.33
2017-11-22T07:35:58.403Z,10.27
2017-11-22T07:37:07.240Z,10.33
2017-11-22T07:38:16.073Z,10.41
2017-11-22T07:39:24.912Z,10.29
2017-11-22T07:40:33.740Z,10.48
2017-11-22T07:41:42.572Z,10.34
2017-11-22T07:42:51.403Z,10.32
2017-11-22T07:44:00.238Z,10.4
2017-11-22T07:45:09.070Z,10.42
2017-11-22T07:46:17.998Z,10.3
2017-11-22T07:47:27.113Z,10.4
2017-11-22T07:48:36.503Z,10.38
2017-11-22T07:49:45.626Z,10.36
2017-11-22T07:50:54.455Z,10.33
2017-11-22T07:52:03.434Z,10.32
2017-11-22T07:53:12.267Z,10.25
2017-11-22T07:54:21.100Z,10.25
2017-11-22T07:55:29.930Z,10.36
2017-11-22T07:56:38.762Z,10.33
2017-11-22T07:57:47.744Z,10.36
2017-11-22T07:58:56.573Z,10.47
2017-11-22T08:00:05.405Z,10.38
2017-11-22T08:01:14.237Z,10.36
2017-11-22T08:02:23.076Z,10.42
2017-11-22T08:03:32.182Z,10.36
2017-11-22T08:04:41.011Z,10.33
2017-11-22T08:05:49.841Z,10.36
2017-11-22T08:06:58.674Z,10.34
2017-11-22T08:08:07.508Z,10.27
2017-11-22T08:09:16.678Z,10.33
2017-11-22T08:10:25.505Z,10.4
2017-11-22T08:11:34.336Z,10.45
2017-11-22T08:12:43.164Z,10.4
2017-11-22T08:13:51.997Z,10.42
2017-11-22T08:15:01.029Z,10.44
2017-11-22T08:16:09.859Z,10.45
2017-11-22T08:17:18.686Z,10.41
2017-11-22T08:18:27.541Z,10.4
2017-11-22T08:19:36.350Z,10.4
2017-11-22T08:20:45.329Z,10.42
2017-11-22T08:21:54.159Z,10.53
2017-11-22T08:23:02.998Z,10.52
2017-11-22T08:24:11.822Z,10.45
2017-11-22T08:25:20.653Z,10.45
2017-11-22T08:26:29.483Z,10.47
2017-11-22T08:27:38.314Z,10.42
2017-11-22T08:28:47.142Z,10.38
2017-11-22T08:29:55.973Z,10.42
2017-11-22T08:31:04.804Z,10.38
2017-11-22T08:32:13.687Z,10.48
2017-11-22T08:33:22.519Z,10.53
2017-11-22T08:34:31.351Z,10.48
2017-11-22T08:35:40.194Z,10.52
2017-11-22T08:36:49.036Z,10.59
2017-11-22T08:37:57.995Z,10.48
2017-11-22T08:39:06.828Z,10.67
2017-11-22T08:40:15.657Z,10.6
2017-11-22T08:41:24.489Z,10.55
2017-11-22T08:42:33.602Z,10.59
2017-11-22T08:43:42.484Z,10.59
2017-11-22T08:44:51.316Z,10.6
2017-11-22T08:46:00.456Z,10.63
2017-11-22T08:47:09.571Z,10.61
2017-11-22T08:48:18.678Z,10.63
2017-11-22T08:49:27.660Z,10.67
2017-11-22T08:50:36.490Z,10.68
2017-11-22T08:51:45.322Z,10.64
2017-11-22T08:52:54.153Z,10.6
2017-11-22T08:54:02.985Z,10.71
2017-11-22T08:55:12.117Z,10.67
2017-11-22T08:56:20.945Z,10.64
2017-11-22T08:57:29.779Z,10.71
2017-11-22T08:58:38.611Z,10.73
2017-11-22T08:59:47.444Z,10.71
2017-11-22T09:00:56.428Z,10.7
2017-11-22T09:02:05.262Z,10.71
2017-11-22T09:03:14.093Z,10.7
2017-11-22T09:04:22.928Z,10.73
2017-11-22T09:05:31.762Z,10.78
2017-11-22T09:06:40.645Z,10.67
2017-11-22T09:07:49.478Z,10.73
2017-11-22T09:08:58.308Z,10.71
2017-11-22T09:10:07.139Z,10.68
2017-11-22T09:11:15.967Z,10.64
2017-11-22T09:12:24.951Z,10.71
2017-11-22T09:13:33.783Z,10.63
2017-11-22T09:14:42.615Z,10.71
2017-11-22T09:15:51.445Z,10.74
2017-11-22T09:17:00.277Z,10.71
2017-11-22T09:18:09.158Z,10.61
2017-11-22T09:19:17.986Z,10.66
2017-11-22T09:20:26.820Z,10.64
2017-11-22T09:21:35.651Z,10.61
2017-11-22T09:22:44.483Z,10.67
2017-11-22T09:23:53.466Z,10.6
2017-11-22T09:25:02.296Z,10.51
2017-11-22T09:26:11.124Z,10.51
2017-11-22T09:27:19.956Z,10.53
2017-11-22T09:28:28.787Z,10.51
2017-11-22T09:29:37.768Z,10.51
2017-11-22T09:30:46.593Z,10.63
2017-11-22T09:31:55.705Z,10.45
2017-11-22T09:33:04.538Z,10.6
2017-11-22T09:34:13.368Z,10.51
2017-11-22T09:35:22.482Z,10.56
2017-11-22T09:36:31.314Z,10.61
2017-11-22T09:37:40.150Z,10.51
2017-11-22T09:38:49.268Z,10.52
2017-11-22T09:39:58.097Z,10.55
2017-11-22T09:41:07.080Z,10.56
2017-11-22T09:42:15.913Z,10.63
2017-11-22T09:43:24.744Z,10.63
2017-11-22T09:44:33.574Z,10.56
2017-11-22T09:45:42.683Z,10.55
2017-11-22T09:46:51.566Z,10.6
2017-11-22T09:48:00.397Z,10.52
2017-11-22T09:49:09.232Z,10.64
2017-11-22T09:50:18.067Z,10.59
2017-11-22T09:51:26.897Z,10.6
2017-11-22T09:52:36.028Z,10.66
2017-11-22T09:53:44.858Z,10.55
2017-11-22T09:54:53.690Z,10.55
2017-11-22T09:56:02.521Z,10.55
2017-11-22T09:57:11.630Z,10.52
2017-11-22T09:58:20.614Z,10.55
2017-11-22T09:59:29.444Z,10.51
2017-11-22T10:00:38.275Z,10.55
2017-11-22T10:01:47.106Z,10.53
2017-11-22T10:02:55.937Z,10.51
2017-11-22T10:04:05.048Z,10.56
2017-11-22T10:05:13.877Z,10.59
2017-11-22T10:06:22.714Z,10.53
2017-11-22T10:07:31.539Z,10.55
2017-11-22T10:08:40.372Z,10.59
2017-11-22T10:09:49.305Z,10.55
2017-11-22T10:10:58.134Z,10.63
2017-11-22T10:12:06.964Z,10.67
2017-11-22T10:13:15.795Z,10.59
2017-11-22T10:14:24.634Z,10.56
2017-11-22T10:15:33.459Z,10.68
2017-11-22T10:16:42.290Z,10.59
2017-11-22T10:17:51.119Z,10.59
2017-11-22T10:18:59.949Z,10.68
2017-11-22T10:20:08.782Z,10.64
2017-11-22T10:21:18.014Z,10.68
2017-11-22T10:22:26.857Z,10.7
2017-11-22T10:23:35.683Z,10.74
2017-11-22T10:24:44.799Z,10.71
2017-11-22T10:25:53.619Z,10.7
2017-11-22T10:27:02.654Z,10.71
2017-11-22T10:28:11.484Z,10.7
2017-11-22T10:29:20.314Z,10.73
2017-11-22T10:30:29.426Z,10.76
2017-11-22T10:31:38.256Z,10.78
2017-11-22T10:32:47.133Z,10.81
2017-11-22T10:33:55.973Z,10.82
2017-11-22T10:35:04.800Z,10.74
2017-11-22T10:36:13.629Z,10.71
2017-11-22T10:37:22.460Z,10.78
2017-11-22T10:38:31.292Z,10.84
2017-11-22T10:39:40.124Z,10.79
2017-11-22T10:40:48.951Z,10.74
2017-11-22T10:41:57.781Z,10.78
2017-11-22T10:43:06.612Z,10.74
2017-11-22T10:44:15.845Z,10.71
2017-11-22T10:45:24.674Z,10.76
2017-11-22T10:46:33.508Z,10.76
2017-11-22T10:47:42.339Z,10.73
2017-11-22T10:48:51.171Z,10.73
2017-11-22T10:50:00.052Z,10.7
2017-11-22T10:51:09.161Z,10.74
2017-11-22T10:52:17.990Z,10.66
2017-11-22T10:53:26.821Z,10.71
2017-11-22T10:54:35.657Z,10.67
2017-11-22T10:55:44.484Z,10.67
2017-11-22T10:56:53.339Z,10.68
2017-11-22T10:58:02.520Z,10.74
2017-11-22T10:59:11.402Z,10.71
2017-11-22T11:00:20.279Z,10.73
2017-11-22T11:01:29.290Z,10.81
2017-11-22T11:02:38.150Z,10.78
2017-11-22T11:03:47.013Z,10.73
2017-11-22T11:04:55.873Z,10.71
2017-11-22T11:06:05.015Z,10.81
2017-11-22T11:07:13.977Z,10.74
2017-11-22T11:08:23.118Z,10.81
2017-11-22T11:09:31.979Z,10.81
2017-11-22T11:10:40.839Z,10.82
2017-11-22T11:11:49.701Z,10.81
2017-11-22T11:12:58.613Z,10.84
2017-11-22T11:14:07.473Z,10.82
2017-11-22T11:15:16.620Z,10.85
2017-11-22T11:16:25.475Z,10.78
2017-11-22T11:17:34.337Z,10.85
2017-11-22T11:18:43.297Z,10.88
2017-11-22T11:19:52.438Z,10.84
2017-11-22T11:21:01.300Z,10.88
2017-11-22T11:22:10.159Z,10.91
2017-11-22T11:23:19.020Z,10.85
2017-11-22T11:24:27.933Z,10.96
2017-11-22T11:25:37.075Z,10.89
2017-11-22T11:26:45.935Z,10.92
2017-11-22T11:27:54.794Z,10.91
2017-11-22T11:29:03.654Z,10.86
2017-11-22T11:30:12.565Z,11
2017-11-22T11:31:21.427Z,11
2017-11-22T11:32:30.293Z,10.94
2017-11-22T11:33:39.150Z,11.02
2017-11-22T11:34:48.011Z,11
2017-11-22T11:35:56.872Z,11.02
2017-11-22T11:37:06.014Z,11.02
2017-11-22T11:38:14.874Z,10.94
2017-11-22T11:39:23.732Z,11.03
2017-11-22T11:40:32.595Z,10.97
2017-11-22T11:41:41.894Z,11.06
2017-11-22T11:42:50.749Z,11.04
2017-11-22T11:43:59.609Z,11.06
2017-11-22T11:45:08.470Z,11.09
2017-11-22T11:46:17.331Z,11.11
2017-11-22T11:47:26.591Z,11.09
2017-11-22T11:48:35.453Z,11.19
2017-11-22T11:49:44.314Z,11.09
2017-11-22T11:50:53.175Z,11.18
2017-11-22T11:52:02.039Z,11.11
2017-11-22T11:53:11.182Z,11.17
2017-11-22T11:54:20.331Z,11.25
2017-11-22T11:55:29.193Z,11.21
2017-11-22T11:56:38.053Z,11.24
2017-11-22T11:57:46.914Z,11.21
2017-11-22T11:58:55.924Z,11.19
2017-11-22T12:00:04.787Z,11.25
2017-11-22T12:01:13.645Z,11.29
2017-11-22T12:02:22.506Z,11.29
2017-11-22T12:03:31.367Z,11.35
2017-11-22T12:04:40.813Z,11.32
2017-11-22T12:05:49.671Z,11.37
2017-11-22T12:06:58.828Z,11.37
2017-11-22T12:08:07.688Z,11.37
2017-11-22T12:09:16.554Z,11.39
2017-11-22T12:10:25.415Z,11.43
2017-11-22T12:11:34.276Z,11.35
2017-11-22T12:12:43.136Z,11.43
2017-11-22T12:13:51.999Z,11.44
2017-11-22T12:15:00.961Z,11.49
2017-11-22T12:16:09.972Z,11.42
2017-11-22T12:17:18.835Z,11.43
2017-11-22T12:18:27.696Z,11.42
2017-11-22T12:19:36.560Z,11.54
2017-11-22T12:20:45.706Z,11.49
2017-11-22T12:21:54.814Z,11.49
2017-11-22T12:23:03.677Z,11.51
2017-11-22T12:24:12.544Z,11.54
2017-11-22T12:25:21.404Z,11.52
2017-11-22T12:26:30.270Z,11.54
2017-11-22T12:27:39.472Z,11.58
2017-11-22T12:28:48.648Z,11.55
2017-11-22T12:29:57.487Z,11.55
2017-11-22T12:31:06.353Z,11.57
2017-11-22T12:32:15.208Z,11.52
2017-11-22T12:33:24.368Z,11.6
2017-11-22T12:34:33.509Z,11.55
2017-11-22T12:35:42.370Z,11.58
2017-11-22T12:36:51.229Z,11.6
2017-11-22T12:38:00.090Z,11.55
2017-11-22T12:39:09.103Z,11.52
2017-11-22T12:40:17.971Z,11.55
2017-11-22T12:41:26.830Z,11.51
2017-11-22T12:42:35.973Z,11.47
2017-11-22T12:43:44.833Z,11.58
2017-11-22T12:44:53.796Z,11.6
2017-11-22T12:46:02.656Z,11.65
2017-11-22T12:47:11.517Z,11.57
2017-11-22T12:48:20.380Z,11.62
2017-11-22T12:49:29.242Z,11.57
2017-11-22T12:50:38.103Z,11.61
2017-11-22T12:51:46.968Z,11.54
2017-11-22T12:52:55.836Z,11.58
2017-11-22T12:54:04.972Z,11.65
2017-11-22T12:55:13.833Z,11.52
2017-11-22T12:56:23.074Z,11.55
2017-11-22T12:57:31.938Z,11.57
2017-11-22T12:58:40.798Z,11.6
2017-11-22T12:59:49.658Z,11.58
2017-11-22T13:00:58.521Z,11.69
2017-11-22T13:02:07.633Z,11.6
2017-11-22T13:03:16.491Z,11.58
2017-11-22T13:04:25.355Z,11.6
2017-11-22T13:05:34.218Z,11.62
2017-11-22T13:06:43.079Z,11.73
2017-11-22T13:07:52.341Z,11.61
2017-11-22T13:09:01.252Z,11.67
2017-11-22T13:10:10.115Z,11.67
2017-11-22T13:11:18.976Z,11.65
2017-11-22T13:12:27.837Z,11.67
2017-11-22T13:13:36.697Z,11.62
2017-11-22T13:14:45.558Z,11.64
2017-11-22T13:15:54.701Z,11.72
2017-11-22T13:17:03.561Z,11.6
2017-11-22T13:18:12.421Z,11.69
2017-11-22T13:19:21.332Z,11.55
2017-11-22T13:20:30.194Z,11.69
2017-11-22T13:21:39.056Z,11.61
2017-11-22T13:22:47.917Z,11.58
2017-11-22T13:23:56.778Z,11.62
2017-11-22T13:25:05.689Z,11.54
2017-11-22T13:26:14.549Z,11.7
2017-11-22T13:27:23.412Z,11.58
2017-11-22T13:28:32.272Z,11.72
2017-11-22T13:29:41.135Z,11.61
2017-11-22T13:30:50.045Z,11.67
2017-11-22T13:31:58.907Z,11.64
2017-11-22T13:33:08.047Z,11.62
2017-11-22T13:34:16.909Z,11.67
2017-11-22T13:35:25.771Z,11.61
2017-11-22T13:36:34.931Z,11.65
2017-11-22T13:37:44.088Z,11.67
2017-11-22T13:38:52.949Z,11.64
2017-11-22T13:40:01.811Z,11.62
2017-11-22T13:41:10.670Z,11.64
2017-11-22T13:42:19.782Z,11.65
2017-11-22T13:43:28.929Z,11.62
2017-11-22T13:44:37.790Z,11.61
2017-11-22T13:45:46.653Z,11.65
2017-11-22T13:46:55.513Z,11.72
2017-11-22T13:48:04.473Z,11.62
2017-11-22T13:49:13.344Z,11.62
2017-11-22T13:50:22.209Z,11.64
2017-11-22T13:51:31.080Z,11.58
2017-11-22T13:52:39.952Z,11.73
2017-11-22T13:53:48.823Z,11.69
2017-11-22T13:54:57.696Z,11.73
2017-11-22T13:56:07.153Z,11.67
2017-11-22T13:57:16.024Z,11.64
2017-11-22T13:58:24.905Z,11.78
2017-11-22T13:59:34.049Z,11.64
2017-11-22T14:00:42.911Z,11.73
2017-11-22T14:01:51.772Z,11.67
2017-11-22T14:03:00.638Z,11.75
2017-11-22T14:04:09.498Z,11.61
2017-11-22T14:05:18.511Z,11.7
2017-11-22T14:06:27.372Z,11.75
2017-11-22T14:07:36.236Z,11.7
2017-11-22T14:08:45.099Z,11.83
2017-11-22T14:09:53.963Z,11.73
2017-11-22T14:11:02.822Z,11.82
2017-11-22T14:12:11.683Z,11.7
2017-11-22T14:13:20.547Z,11.82
2017-11-22T14:14:29.415Z,11.73
2017-11-22T14:15:38.295Z,11.78
2017-11-22T14:16:47.159Z,11.76
2017-11-22T14:17:56.024Z,11.76
2017-11-22T14:19:04.884Z,11.75
2017-11-22T14:20:13.749Z,11.83
2017-11-22T14:21:22.889Z,11.8
2017-11-22T14:22:31.902Z,11.8
2017-11-22T14:23:40.762Z,11.79
2017-11-22T14:24:49.624Z,11.82
2017-11-22T14:25:58.772Z,11.85
2017-11-22T14:27:07.636Z,11.94
2017-11-22T14:28:16.898Z,11.85
2017-11-22T14:29:25.762Z,11.83
2017-11-22T14:30:34.909Z,11.79
2017-11-22T14:31:43.774Z,11.76
2017-11-22T14:32:52.633Z,11.78
2017-11-22T14:34:01.936Z,11.75
2017-11-22T14:35:10.796Z,11.78
2017-11-22T14:36:19.658Z,11.78
2017-11-22T14:37:28.521Z,11.73
2017-11-22T14:38:37.382Z,11.65
2017-11-22T14:39:46.393Z,11.65
2017-11-22T14:40:55.256Z,11.64
2017-11-22T14:42:04.219Z,11.73
2017-11-22T14:43:13.083Z,11.6
2017-11-22T14:44:21.946Z,11.55
2017-11-22T14:45:30.860Z,11.51
2017-11-22T14:46:39.723Z,11.57
2017-11-22T14:47:48.586Z,11.52
2017-11-22T14:48:57.446Z,11.43
2017-11-22T14:50:06.410Z,11.43
2017-11-22T14:51:15.559Z,11.42
2017-11-22T14:52:24.418Z,11.37
2017-11-22T14:53:33.279Z,11.27
2017-11-22T14:54:42.142Z,11.24
2017-11-22T14:55:51.002Z,11.24
2017-11-22T14:57:00.146Z,11.25
2017-11-22T14:58:09.012Z,11.25